sensor_id;sensor_type;location;lat;lon;timestamp;P1;durP1;ratioP1;P2;durP2;ratioP2
11064;SDS011;5585;52.530;7.320;2023-11-22T00:00:43;6.23;;;5.00;;
11064;SDS011;5585;52.530;7.320;2023-11-22T00:03:09;6.23;;;4.83;;
11064;SDS011;5585;52.530;7.320;2023-11-22T00:05:36;5.70;;;5.10;;
11064;SDS011;5585;52.530;7.320;2023-11-22T00:08:02;6.43;;;5.53;;
11064;SDS011;5585;52.530;7.320;2023-11-22T00:10:29;6.03;;;5.03;;
11064;SDS011;5585;52.530;7.320;2023-11-22T00:12:55;6.03;;;4.63;;
11064;SDS011;5585;52.530;7.320;2023-11-22T00:15:25;7.23;;;5.67;;
11064;SDS011;5585;52.530;7.320;2023-11-22T00:17:51;6.20;;;5.07;;
11064;SDS011;5585;52.530;7.320;2023-11-22T00:20:18;5.23;;;4.73;;
11064;SDS011;5585;52.530;7.320;2023-11-22T00:22:46;6.03;;;5.10;;
11064;SDS011;5585;52.530;7.320;2023-11-22T00:25:12;5.60;;;5.10;;
11064;SDS011;5585;52.530;7.320;2023-11-22T00:27:39;5.00;;;4.43;;
11064;SDS011;5585;52.530;7.320;2023-11-22T00:30:07;6.57;;;5.20;;
11064;SDS011;5585;52.530;7.320;2023-11-22T00:32:36;5.93;;;4.63;;
11064;SDS011;5585;52.530;7.320;2023-11-22T00:35:02;5.83;;;5.23;;
11064;SDS011;5585;52.530;7.320;2023-11-22T00:37:29;7.93;;;5.10;;
11064;SDS011;5585;52.530;7.320;2023-11-22T00:39:55;5.83;;;5.20;;
11064;SDS011;5585;52.530;7.320;2023-11-22T00:42:22;5.17;;;4.67;;
11064;SDS011;5585;52.530;7.320;2023-11-22T00:44:48;6.10;;;5.50;;
11064;SDS011;5585;52.530;7.320;2023-11-22T00:47:15;5.60;;;4.87;;
11064;SDS011;5585;52.530;7.320;2023-11-22T00:49:43;5.17;;;4.67;;
11064;SDS011;5585;52.530;7.320;2023-11-22T00:52:10;4.80;;;4.30;;
11064;SDS011;5585;52.530;7.320;2023-11-22T00:54:37;6.73;;;5.00;;
11064;SDS011;5585;52.530;7.320;2023-11-22T00:57:04;5.33;;;4.83;;
11064;SDS011;5585;52.530;7.320;2023-11-22T00:59:32;5.97;;;5.37;;
11064;SDS011;5585;52.530;7.320;2023-11-22T01:01:58;5.20;;;4.70;;
11064;SDS011;5585;52.530;7.320;2023-11-22T01:04:27;5.67;;;5.00;;
11064;SDS011;5585;52.530;7.320;2023-11-22T01:06:55;5.50;;;4.93;;
11064;SDS011;5585;52.530;7.320;2023-11-22T01:09:21;7.23;;;5.17;;
11064;SDS011;5585;52.530;7.320;2023-11-22T01:11:48;5.20;;;4.60;;
11064;SDS011;5585;52.530;7.320;2023-11-22T01:14:14;6.13;;;5.57;;
11064;SDS011;5585;52.530;7.320;2023-11-22T01:16:40;5.37;;;4.87;;
11064;SDS011;5585;52.530;7.320;2023-11-22T01:19:08;6.03;;;5.43;;
11064;SDS011;5585;52.530;7.320;2023-11-22T01:21:34;5.73;;;4.90;;
11064;SDS011;5585;52.530;7.320;2023-11-22T01:24:02;5.87;;;4.80;;
11064;SDS011;5585;52.530;7.320;2023-11-22T01:26:29;5.43;;;4.90;;
11064;SDS011;5585;52.530;7.320;2023-11-22T01:28:55;7.57;;;5.53;;
11064;SDS011;5585;52.530;7.320;2023-11-22T01:31:22;6.10;;;5.10;;
11064;SDS011;5585;52.530;7.320;2023-11-22T01:33:48;5.97;;;5.10;;
11064;SDS011;5585;52.530;7.320;2023-11-22T01:36:14;6.13;;;5.53;;
11064;SDS011;5585;52.530;7.320;2023-11-22T01:38:41;6.47;;;5.27;;
11064;SDS011;5585;52.530;7.320;2023-11-22T01:41:11;6.40;;;5.17;;
11064;SDS011;5585;52.530;7.320;2023-11-22T01:43:38;5.90;;;5.00;;
11064;SDS011;5585;52.530;7.320;2023-11-22T01:46:05;6.40;;;5.10;;
11064;SDS011;5585;52.530;7.320;2023-11-22T01:48:31;6.10;;;5.23;;
11064;SDS011;5585;52.530;7.320;2023-11-22T01:50:58;5.30;;;4.70;;
11064;SDS011;5585;52.530;7.320;2023-11-22T01:53:25;5.83;;;5.33;;
11064;SDS011;5585;52.530;7.320;2023-11-22T01:55:51;6.60;;;5.57;;
11064;SDS011;5585;52.530;7.320;2023-11-22T01:58:19;7.30;;;5.73;;
11064;SDS011;5585;52.530;7.320;2023-11-22T02:00:49;6.53;;;5.83;;
11064;SDS011;5585;52.530;7.320;2023-11-22T02:03:15;6.30;;;5.27;;
11064;SDS011;5585;52.530;7.320;2023-11-22T02:05:42;6.60;;;5.67;;
11064;SDS011;5585;52.530;7.320;2023-11-22T02:08:09;6.87;;;5.27;;
11064;SDS011;5585;52.530;7.320;2023-11-22T02:10:35;8.07;;;5.40;;
11064;SDS011;5585;52.530;7.320;2023-11-22T02:13:02;5.70;;;5.10;;
11064;SDS011;5585;52.530;7.320;2023-11-22T02:15:31;7.43;;;5.90;;
11064;SDS011;5585;52.530;7.320;2023-11-22T02:17:58;7.83;;;5.63;;
11064;SDS011;5585;52.530;7.320;2023-11-22T02:20:25;6.00;;;5.13;;
11064;SDS011;5585;52.530;7.320;2023-11-22T02:22:51;6.23;;;4.93;;
11064;SDS011;5585;52.530;7.320;2023-11-22T02:25:20;6.70;;;5.40;;
11064;SDS011;5585;52.530;7.320;2023-11-22T02:27:46;6.17;;;5.57;;
11064;SDS011;5585;52.530;7.320;2023-11-22T02:30:13;6.70;;;5.27;;
11064;SDS011;5585;52.530;7.320;2023-11-22T02:32:40;6.97;;;5.47;;
11064;SDS011;5585;52.530;7.320;2023-11-22T02:35:07;6.53;;;5.23;;
11064;SDS011;5585;52.530;7.320;2023-11-22T02:37:33;6.20;;;5.30;;
11064;SDS011;5585;52.530;7.320;2023-11-22T02:40:02;6.70;;;5.50;;
11064;SDS011;5585;52.530;7.320;2023-11-22T02:42:32;8.13;;;5.60;;
11064;SDS011;5585;52.530;7.320;2023-11-22T02:44:58;7.37;;;5.43;;
11064;SDS011;5585;52.530;7.320;2023-11-22T02:47:25;7.90;;;5.60;;
11064;SDS011;5585;52.530;7.320;2023-11-22T02:49:51;7.30;;;5.53;;
11064;SDS011;5585;52.530;7.320;2023-11-22T02:52:19;7.33;;;5.80;;
11064;SDS011;5585;52.530;7.320;2023-11-22T02:54:46;7.60;;;5.90;;
11064;SDS011;5585;52.530;7.320;2023-11-22T02:57:14;6.77;;;5.43;;
11064;SDS011;5585;52.530;7.320;2023-11-22T02:59:42;6.23;;;5.63;;
11064;SDS011;5585;52.530;7.320;2023-11-22T03:02:09;7.03;;;5.73;;
11064;SDS011;5585;52.530;7.320;2023-11-22T03:04:35;7.60;;;5.80;;
11064;SDS011;5585;52.530;7.320;2023-11-22T03:07:01;10.20;;;6.20;;
11064;SDS011;5585;52.530;7.320;2023-11-22T03:09:28;6.20;;;5.60;;
11064;SDS011;5585;52.530;7.320;2023-11-22T03:11:54;8.37;;;6.03;;
11064;SDS011;5585;52.530;7.320;2023-11-22T03:14:21;6.53;;;5.23;;
11064;SDS011;5585;52.530;7.320;2023-11-22T03:16:49;7.00;;;5.60;;
11064;SDS011;5585;52.530;7.320;2023-11-22T03:19:15;6.87;;;5.77;;
11064;SDS011;5585;52.530;7.320;2023-11-22T03:21:42;5.67;;;5.07;;
11064;SDS011;5585;52.530;7.320;2023-11-22T03:24:09;7.77;;;5.43;;
11064;SDS011;5585;52.530;7.320;2023-11-22T03:26:35;6.40;;;5.80;;
11064;SDS011;5585;52.530;7.320;2023-11-22T03:29:02;10.03;;;6.20;;
11064;SDS011;5585;52.530;7.320;2023-11-22T03:31:28;8.70;;;6.20;;
11064;SDS011;5585;52.530;7.320;2023-11-22T03:33:56;6.27;;;5.60;;
11064;SDS011;5585;52.530;7.320;2023-11-22T03:36:23;8.73;;;5.57;;
11064;SDS011;5585;52.530;7.320;2023-11-22T03:38:50;7.67;;;5.97;;
11064;SDS011;5585;52.530;7.320;2023-11-22T03:41:16;8.47;;;6.60;;
11064;SDS011;5585;52.530;7.320;2023-11-22T03:43:43;6.43;;;5.30;;
11064;SDS011;5585;52.530;7.320;2023-11-22T03:46:09;6.83;;;6.10;;
11064;SDS011;5585;52.530;7.320;2023-11-22T03:48:36;7.37;;;6.40;;
11064;SDS011;5585;52.530;7.320;2023-11-22T03:51:04;8.93;;;5.73;;
11064;SDS011;5585;52.530;7.320;2023-11-22T03:53:30;7.33;;;5.77;;
11064;SDS011;5585;52.530;7.320;2023-11-22T03:55:57;6.80;;;5.63;;
11064;SDS011;5585;52.530;7.320;2023-11-22T03:58:23;7.33;;;5.50;;
11064;SDS011;5585;52.530;7.320;2023-11-22T04:00:51;8.40;;;6.63;;
11064;SDS011;5585;52.530;7.320;2023-11-22T04:03:17;8.00;;;5.87;;
11064;SDS011;5585;52.530;7.320;2023-11-22T04:05:44;7.30;;;6.30;;
11064;SDS011;5585;52.530;7.320;2023-11-22T04:08:11;7.93;;;6.20;;
11064;SDS011;5585;52.530;7.320;2023-11-22T04:10:38;7.07;;;5.50;;
11064;SDS011;5585;52.530;7.320;2023-11-22T04:13:04;7.57;;;5.97;;
11064;SDS011;5585;52.530;7.320;2023-11-22T04:15:31;8.20;;;6.40;;
11064;SDS011;5585;52.530;7.320;2023-11-22T04:17:57;9.07;;;7.17;;
11064;SDS011;5585;52.530;7.320;2023-11-22T04:20:24;7.97;;;7.17;;
11064;SDS011;5585;52.530;7.320;2023-11-22T04:22:50;9.67;;;6.90;;
11064;SDS011;5585;52.530;7.320;2023-11-22T04:25:18;7.90;;;6.60;;
11064;SDS011;5585;52.530;7.320;2023-11-22T04:27:44;7.40;;;6.60;;
11064;SDS011;5585;52.530;7.320;2023-11-22T04:30:12;8.87;;;6.17;;
11064;SDS011;5585;52.530;7.320;2023-11-22T04:32:39;9.50;;;7.10;;
11064;SDS011;5585;52.530;7.320;2023-11-22T04:35:06;8.17;;;7.00;;
11064;SDS011;5585;52.530;7.320;2023-11-22T04:37:33;11.00;;;8.73;;
11064;SDS011;5585;52.530;7.320;2023-11-22T04:39:59;10.53;;;8.73;;
11064;SDS011;5585;52.530;7.320;2023-11-22T04:42:27;13.13;;;8.93;;
11064;SDS011;5585;52.530;7.320;2023-11-22T04:44:53;12.97;;;9.60;;
11064;SDS011;5585;52.530;7.320;2023-11-22T04:47:20;12.63;;;9.13;;
11064;SDS011;5585;52.530;7.320;2023-11-22T04:49:47;11.70;;;8.87;;
11064;SDS011;5585;52.530;7.320;2023-11-22T04:52:13;12.87;;;8.60;;
11064;SDS011;5585;52.530;7.320;2023-11-22T04:54:40;10.87;;;8.57;;
11064;SDS011;5585;52.530;7.320;2023-11-22T04:57:07;13.93;;;10.20;;
11064;SDS011;5585;52.530;7.320;2023-11-22T04:59:34;10.70;;;8.67;;
11064;SDS011;5585;52.530;7.320;2023-11-22T05:02:01;11.33;;;8.53;;
11064;SDS011;5585;52.530;7.320;2023-11-22T05:04:27;10.97;;;8.60;;
11064;SDS011;5585;52.530;7.320;2023-11-22T05:06:54;12.37;;;8.87;;
11064;SDS011;5585;52.530;7.320;2023-11-22T05:09:20;10.77;;;8.97;;
11064;SDS011;5585;52.530;7.320;2023-11-22T05:11:47;11.37;;;8.33;;
11064;SDS011;5585;52.530;7.320;2023-11-22T05:14:13;11.93;;;9.17;;
11064;SDS011;5585;52.530;7.320;2023-11-22T05:16:41;10.63;;;8.53;;
11064;SDS011;5585;52.530;7.320;2023-11-22T05:19:08;12.37;;;9.40;;
11064;SDS011;5585;52.530;7.320;2023-11-22T05:21:34;12.73;;;9.23;;
11064;SDS011;5585;52.530;7.320;2023-11-22T05:24:00;9.93;;;8.43;;
11064;SDS011;5585;52.530;7.320;2023-11-22T05:26:27;9.83;;;8.20;;
11064;SDS011;5585;52.530;7.320;2023-11-22T05:28:53;8.73;;;6.90;;
11064;SDS011;5585;52.530;7.320;2023-11-22T05:31:20;7.40;;;6.53;;
11064;SDS011;5585;52.530;7.320;2023-11-22T05:33:48;8.17;;;6.97;;
11064;SDS011;5585;52.530;7.320;2023-11-22T05:36:14;6.93;;;6.23;;
11064;SDS011;5585;52.530;7.320;2023-11-22T05:38:41;8.00;;;6.57;;
11064;SDS011;5585;52.530;7.320;2023-11-22T05:41:08;9.10;;;7.90;;
11064;SDS011;5585;52.530;7.320;2023-11-22T05:43:34;10.50;;;8.20;;
11064;SDS011;5585;52.530;7.320;2023-11-22T05:46:01;10.27;;;8.40;;
11064;SDS011;5585;52.530;7.320;2023-11-22T05:48:28;8.77;;;7.83;;
11064;SDS011;5585;52.530;7.320;2023-11-22T05:50:56;9.10;;;7.30;;
11064;SDS011;5585;52.530;7.320;2023-11-22T05:53:23;8.80;;;7.27;;
11064;SDS011;5585;52.530;7.320;2023-11-22T05:55:49;8.07;;;7.10;;
11064;SDS011;5585;52.530;7.320;2023-11-22T05:58:16;8.60;;;7.53;;
11064;SDS011;5585;52.530;7.320;2023-11-22T06:00:42;7.87;;;6.97;;
11064;SDS011;5585;52.530;7.320;2023-11-22T06:03:09;7.53;;;6.70;;
11064;SDS011;5585;52.530;7.320;2023-11-22T06:05:36;7.87;;;7.03;;
11064;SDS011;5585;52.530;7.320;2023-11-22T06:08:04;8.40;;;7.50;;
11064;SDS011;5585;52.530;7.320;2023-11-22T06:10:30;8.00;;;6.87;;
11064;SDS011;5585;52.530;7.320;2023-11-22T06:12:57;7.00;;;6.30;;
11064;SDS011;5585;52.530;7.320;2023-11-22T06:15:23;7.53;;;6.73;;
11064;SDS011;5585;52.530;7.320;2023-11-22T06:17:50;9.07;;;7.53;;
11064;SDS011;5585;52.530;7.320;2023-11-22T06:20:16;7.37;;;6.60;;
11064;SDS011;5585;52.530;7.320;2023-11-22T06:22:43;7.33;;;6.60;;
11064;SDS011;5585;52.530;7.320;2023-11-22T06:25:11;6.70;;;6.00;;
11064;SDS011;5585;52.530;7.320;2023-11-22T06:27:37;6.30;;;5.63;;
11064;SDS011;5585;52.530;7.320;2023-11-22T06:30:04;7.23;;;6.17;;
11064;SDS011;5585;52.530;7.320;2023-11-22T06:32:31;7.70;;;6.90;;
11064;SDS011;5585;52.530;7.320;2023-11-22T06:34:59;7.10;;;6.40;;
11064;SDS011;5585;52.530;7.320;2023-11-22T06:37:25;6.83;;;6.13;;
11064;SDS011;5585;52.530;7.320;2023-11-22T06:39:52;6.70;;;6.00;;
11064;SDS011;5585;52.530;7.320;2023-11-22T06:42:20;6.67;;;6.07;;
11064;SDS011;5585;52.530;7.320;2023-11-22T06:44:47;9.10;;;6.00;;
11064;SDS011;5585;52.530;7.320;2023-11-22T06:47:14;7.50;;;6.40;;
11064;SDS011;5585;52.530;7.320;2023-11-22T06:49:40;7.43;;;6.70;;
11064;SDS011;5585;52.530;7.320;2023-11-22T06:52:06;8.53;;;6.67;;
11064;SDS011;5585;52.530;7.320;2023-11-22T06:54:34;8.60;;;7.30;;
11064;SDS011;5585;52.530;7.320;2023-11-22T06:57:00;7.73;;;6.93;;
11064;SDS011;5585;52.530;7.320;2023-11-22T06:59:28;8.90;;;7.43;;
11064;SDS011;5585;52.530;7.320;2023-11-22T07:01:55;12.40;;;7.30;;
11064;SDS011;5585;52.530;7.320;2023-11-22T07:04:21;10.20;;;6.57;;
11064;SDS011;5585;52.530;7.320;2023-11-22T07:06:48;7.73;;;6.93;;
11064;SDS011;5585;52.530;7.320;2023-11-22T07:09:14;9.33;;;7.20;;
11064;SDS011;5585;52.530;7.320;2023-11-22T07:11:41;8.83;;;7.10;;
11064;SDS011;5585;52.530;7.320;2023-11-22T07:14:09;12.77;;;6.97;;
11064;SDS011;5585;52.530;7.320;2023-11-22T07:16:37;11.02;;;7.80;;
11064;SDS011;5585;52.530;7.320;2023-11-22T07:19:04;11.00;;;7.83;;
11064;SDS011;5585;52.530;7.320;2023-11-22T07:21:31;8.97;;;7.20;;
11064;SDS011;5585;52.530;7.320;2023-11-22T07:23:58;9.00;;;7.00;;
11064;SDS011;5585;52.530;7.320;2023-11-22T07:26:25;9.63;;;7.20;;
11064;SDS011;5585;52.530;7.320;2023-11-22T07:28:53;12.60;;;7.80;;
11064;SDS011;5585;52.530;7.320;2023-11-22T07:31:19;11.00;;;8.00;;
11064;SDS011;5585;52.530;7.320;2023-11-22T07:33:47;11.30;;;7.27;;
11064;SDS011;5585;52.530;7.320;2023-11-22T07:36:14;10.47;;;7.97;;
11064;SDS011;5585;52.530;7.320;2023-11-22T07:38:40;10.70;;;8.10;;
11064;SDS011;5585;52.530;7.320;2023-11-22T07:41:07;10.90;;;7.97;;
11064;SDS011;5585;52.530;7.320;2023-11-22T07:43:34;10.57;;;8.37;;
11064;SDS011;5585;52.530;7.320;2023-11-22T07:46:02;9.37;;;7.80;;
11064;SDS011;5585;52.530;7.320;2023-11-22T07:48:30;11.63;;;7.67;;
11064;SDS011;5585;52.530;7.320;2023-11-22T07:50:59;9.07;;;7.30;;
11064;SDS011;5585;52.530;7.320;2023-11-22T07:53:26;8.40;;;7.57;;
11064;SDS011;5585;52.530;7.320;2023-11-22T07:55:54;7.83;;;6.80;;
11064;SDS011;5585;52.530;7.320;2023-11-22T07:58:21;9.03;;;7.93;;
11064;SDS011;5585;52.530;7.320;2023-11-22T08:00:49;9.60;;;8.17;;
11064;SDS011;5585;52.530;7.320;2023-11-22T08:03:15;9.30;;;8.33;;
11064;SDS011;5585;52.530;7.320;2023-11-22T08:05:43;9.30;;;8.13;;
11064;SDS011;5585;52.530;7.320;2023-11-22T08:08:14;9.97;;;7.97;;
11064;SDS011;5585;52.530;7.320;2023-11-22T08:10:41;8.33;;;7.33;;
11064;SDS011;5585;52.530;7.320;2023-11-22T08:13:08;11.00;;;8.50;;
11064;SDS011;5585;52.530;7.320;2023-11-22T08:15:35;9.53;;;8.53;;
11064;SDS011;5585;52.530;7.320;2023-11-22T08:18:03;9.40;;;7.80;;
11064;SDS011;5585;52.530;7.320;2023-11-22T08:20:30;9.90;;;8.33;;
11064;SDS011;5585;52.530;7.320;2023-11-22T08:22:57;9.53;;;8.00;;
11064;SDS011;5585;52.530;7.320;2023-11-22T08:25:25;9.00;;;8.10;;
11064;SDS011;5585;52.530;7.320;2023-11-22T08:27:51;10.43;;;8.60;;
11064;SDS011;5585;52.530;7.320;2023-11-22T08:30:18;10.20;;;8.50;;
11064;SDS011;5585;52.530;7.320;2023-11-22T08:32:45;10.33;;;8.23;;
11064;SDS011;5585;52.530;7.320;2023-11-22T08:35:16;9.33;;;7.90;;
11064;SDS011;5585;52.530;7.320;2023-11-22T08:37:42;9.43;;;8.37;;
11064;SDS011;5585;52.530;7.320;2023-11-22T08:40:09;11.23;;;9.10;;
11064;SDS011;5585;52.530;7.320;2023-11-22T08:42:40;11.37;;;9.20;;
11064;SDS011;5585;52.530;7.320;2023-11-22T08:45:07;10.90;;;8.53;;
11064;SDS011;5585;52.530;7.320;2023-11-22T08:47:34;9.00;;;7.93;;
11064;SDS011;5585;52.530;7.320;2023-11-22T08:50:01;9.97;;;8.50;;
11064;SDS011;5585;52.530;7.320;2023-11-22T08:52:28;10.00;;;8.13;;
11064;SDS011;5585;52.530;7.320;2023-11-22T08:54:56;12.00;;;8.83;;
11064;SDS011;5585;52.530;7.320;2023-11-22T08:57:22;11.60;;;8.80;;
11064;SDS011;5585;52.530;7.320;2023-11-22T08:59:50;9.77;;;8.60;;
11064;SDS011;5585;52.530;7.320;2023-11-22T09:02:16;10.80;;;8.60;;
11064;SDS011;5585;52.530;7.320;2023-11-22T09:04:43;10.87;;;8.80;;
11064;SDS011;5585;52.530;7.320;2023-11-22T09:07:09;9.73;;;8.30;;
11064;SDS011;5585;52.530;7.320;2023-11-22T09:09:39;7.90;;;7.10;;
11064;SDS011;5585;52.530;7.320;2023-11-22T09:12:06;7.73;;;6.53;;
11064;SDS011;5585;52.530;7.320;2023-11-22T09:14:37;7.87;;;6.80;;
11064;SDS011;5585;52.530;7.320;2023-11-22T09:17:07;8.67;;;7.17;;
11064;SDS011;5585;52.530;7.320;2023-11-22T09:19:34;8.97;;;7.00;;
11064;SDS011;5585;52.530;7.320;2023-11-22T09:22:01;6.87;;;6.13;;
11064;SDS011;5585;52.530;7.320;2023-11-22T09:24:27;6.50;;;5.90;;
11064;SDS011;5585;52.530;7.320;2023-11-22T09:26:54;6.90;;;6.03;;
11064;SDS011;5585;52.530;7.320;2023-11-22T09:29:20;6.87;;;5.97;;
11064;SDS011;5585;52.530;7.320;2023-11-22T09:31:47;7.07;;;5.70;;
11064;SDS011;5585;52.530;7.320;2023-11-22T09:34:14;6.87;;;5.97;;
11064;SDS011;5585;52.530;7.320;2023-11-22T09:36:41;7.40;;;6.10;;
11064;SDS011;5585;52.530;7.320;2023-11-22T09:39:07;8.27;;;5.73;;
11064;SDS011;5585;52.530;7.320;2023-11-22T09:41:34;6.13;;;5.53;;
11064;SDS011;5585;52.530;7.320;2023-11-22T09:44:01;6.37;;;5.77;;
11064;SDS011;5585;52.530;7.320;2023-11-22T09:46:28;6.10;;;5.37;;
11064;SDS011;5585;52.530;7.320;2023-11-22T09:48:56;6.57;;;5.80;;
11064;SDS011;5585;52.530;7.320;2023-11-22T09:51:24;6.37;;;5.50;;
11064;SDS011;5585;52.530;7.320;2023-11-22T09:53:53;6.80;;;5.33;;
11064;SDS011;5585;52.530;7.320;2023-11-22T09:56:21;6.03;;;5.40;;
11064;SDS011;5585;52.530;7.320;2023-11-22T09:58:49;7.17;;;5.80;;
11064;SDS011;5585;52.530;7.320;2023-11-22T10:01:19;5.80;;;5.13;;
11064;SDS011;5585;52.530;7.320;2023-11-22T10:03:46;5.80;;;5.20;;
11064;SDS011;5585;52.530;7.320;2023-11-22T10:06:13;6.00;;;5.00;;
11064;SDS011;5585;52.530;7.320;2023-11-22T10:08:42;7.37;;;6.53;;
11064;SDS011;5585;52.530;7.320;2023-11-22T10:11:08;6.47;;;5.67;;
11064;SDS011;5585;52.530;7.320;2023-11-22T10:13:35;6.23;;;5.50;;
11064;SDS011;5585;52.530;7.320;2023-11-22T10:16:08;6.47;;;5.50;;
11064;SDS011;5585;52.530;7.320;2023-11-22T10:18:35;6.43;;;5.60;;
11064;SDS011;5585;52.530;7.320;2023-11-22T10:21:04;6.67;;;5.53;;
11064;SDS011;5585;52.530;7.320;2023-11-22T10:23:45;7.40;;;6.67;;
11064;SDS011;5585;52.530;7.320;2023-11-22T10:26:12;7.60;;;6.40;;
11064;SDS011;5585;52.530;7.320;2023-11-22T10:28:41;7.63;;;6.63;;
11064;SDS011;5585;52.530;7.320;2023-11-22T10:31:08;7.13;;;6.40;;
11064;SDS011;5585;52.530;7.320;2023-11-22T10:33:38;7.87;;;6.60;;
11064;SDS011;5585;52.530;7.320;2023-11-22T10:36:05;6.37;;;5.70;;
11064;SDS011;5585;52.530;7.320;2023-11-22T10:38:33;7.00;;;5.63;;
11064;SDS011;5585;52.530;7.320;2023-11-22T10:41:02;6.73;;;5.73;;
11064;SDS011;5585;52.530;7.320;2023-11-22T10:43:29;6.57;;;5.70;;
11064;SDS011;5585;52.530;7.320;2023-11-22T10:45:57;6.67;;;5.93;;
11064;SDS011;5585;52.530;7.320;2023-11-22T10:48:24;6.93;;;5.53;;
11064;SDS011;5585;52.530;7.320;2023-11-22T10:50:51;6.77;;;5.33;;
11064;SDS011;5585;52.530;7.320;2023-11-22T10:53:20;8.33;;;5.23;;
11064;SDS011;5585;52.530;7.320;2023-11-22T10:55:49;6.20;;;5.07;;
11064;SDS011;5585;52.530;7.320;2023-11-22T10:58:20;6.47;;;4.40;;
11064;SDS011;5585;52.530;7.320;2023-11-22T11:00:47;5.20;;;4.60;;
11064;SDS011;5585;52.530;7.320;2023-11-22T11:03:17;6.47;;;4.50;;
11064;SDS011;5585;52.530;7.320;2023-11-22T11:05:47;5.37;;;4.63;;
11064;SDS011;5585;52.530;7.320;2023-11-22T11:08:16;5.87;;;4.47;;
11064;SDS011;5585;52.530;7.320;2023-11-22T11:10:45;6.03;;;4.40;;
11064;SDS011;5585;52.530;7.320;2023-11-22T11:13:12;5.93;;;4.27;;
11064;SDS011;5585;52.530;7.320;2023-11-22T11:15:40;5.50;;;4.60;;
11064;SDS011;5585;52.530;7.320;2023-11-22T11:18:08;4.87;;;3.97;;
11064;SDS011;5585;52.530;7.320;2023-11-22T11:20:44;6.67;;;4.97;;
11064;SDS011;5585;52.530;7.320;2023-11-22T11:23:13;6.13;;;5.03;;
11064;SDS011;5585;52.530;7.320;2023-11-22T11:25:39;6.17;;;4.90;;
11064;SDS011;5585;52.530;7.320;2023-11-22T11:28:08;5.53;;;4.93;;
11064;SDS011;5585;52.530;7.320;2023-11-22T11:30:41;5.77;;;4.80;;
11064;SDS011;5585;52.530;7.320;2023-11-22T11:33:09;7.33;;;5.33;;
11064;SDS011;5585;52.530;7.320;2023-11-22T11:35:39;8.83;;;6.37;;
11064;SDS011;5585;52.530;7.320;2023-11-22T11:38:07;7.17;;;5.60;;
11064;SDS011;5585;52.530;7.320;2023-11-22T11:40:34;7.00;;;5.50;;
11064;SDS011;5585;52.530;7.320;2023-11-22T11:43:01;6.67;;;5.40;;
11064;SDS011;5585;52.530;7.320;2023-11-22T11:45:27;6.67;;;5.40;;
11064;SDS011;5585;52.530;7.320;2023-11-22T11:47:56;8.47;;;5.30;;
11064;SDS011;5585;52.530;7.320;2023-11-22T11:50:23;5.47;;;4.37;;
11064;SDS011;5585;52.530;7.320;2023-11-22T11:52:49;5.57;;;4.93;;
11064;SDS011;5585;52.530;7.320;2023-11-22T11:55:15;5.57;;;4.60;;
11064;SDS011;5585;52.530;7.320;2023-11-22T11:57:42;6.03;;;4.53;;
11064;SDS011;5585;52.530;7.320;2023-11-22T12:00:12;6.37;;;4.27;;
11064;SDS011;5585;52.530;7.320;2023-11-22T12:02:39;4.93;;;3.97;;
11064;SDS011;5585;52.530;7.320;2023-11-22T12:05:07;4.43;;;4.03;;
11064;SDS011;5585;52.530;7.320;2023-11-22T12:07:34;4.10;;;3.70;;
11064;SDS011;5585;52.530;7.320;2023-11-22T12:10:01;5.00;;;3.87;;
11064;SDS011;5585;52.530;7.320;2023-11-22T12:12:28;5.03;;;4.00;;
11064;SDS011;5585;52.530;7.320;2023-11-22T12:14:55;4.57;;;3.03;;
11064;SDS011;5585;52.530;7.320;2023-11-22T12:17:21;5.17;;;3.63;;
11064;SDS011;5585;52.530;7.320;2023-11-22T12:19:48;4.57;;;3.40;;
11064;SDS011;5585;52.530;7.320;2023-11-22T12:22:16;4.83;;;3.33;;
11064;SDS011;5585;52.530;7.320;2023-11-22T12:24:43;3.80;;;3.30;;
11064;SDS011;5585;52.530;7.320;2023-11-22T12:27:09;3.63;;;3.33;;
11064;SDS011;5585;52.530;7.320;2023-11-22T12:29:36;5.17;;;3.10;;
11064;SDS011;5585;52.530;7.320;2023-11-22T12:32:02;4.10;;;3.73;;
11064;SDS011;5585;52.530;7.320;2023-11-22T12:34:29;3.53;;;2.90;;
11064;SDS011;5585;52.530;7.320;2023-11-22T12:36:56;3.67;;;3.10;;
11064;SDS011;5585;52.530;7.320;2023-11-22T12:39:24;4.03;;;2.70;;
11064;SDS011;5585;52.530;7.320;2023-11-22T12:41:53;4.43;;;3.17;;
11064;SDS011;5585;52.530;7.320;2023-11-22T12:44:19;3.73;;;2.70;;
11064;SDS011;5585;52.530;7.320;2023-11-22T12:46:47;3.20;;;2.90;;
11064;SDS011;5585;52.530;7.320;2023-11-22T12:49:15;3.40;;;2.87;;
11064;SDS011;5585;52.530;7.320;2023-11-22T12:51:46;4.73;;;3.17;;
11064;SDS011;5585;52.530;7.320;2023-11-22T12:54:13;3.30;;;3.00;;
11064;SDS011;5585;52.530;7.320;2023-11-22T12:56:41;3.47;;;3.00;;
11064;SDS011;5585;52.530;7.320;2023-11-22T12:59:08;3.70;;;2.90;;
11064;SDS011;5585;52.530;7.320;2023-11-22T13:01:35;2.70;;;2.50;;
11064;SDS011;5585;52.530;7.320;2023-11-22T13:04:01;3.70;;;2.90;;
11064;SDS011;5585;52.530;7.320;2023-11-22T13:06:28;2.97;;;2.60;;
11064;SDS011;5585;52.530;7.320;2023-11-22T13:08:55;3.20;;;2.87;;
11064;SDS011;5585;52.530;7.320;2023-11-22T13:11:21;3.07;;;2.80;;
11064;SDS011;5585;52.530;7.320;2023-11-22T13:13:50;2.93;;;2.63;;
11064;SDS011;5585;52.530;7.320;2023-11-22T13:16:17;3.60;;;3.00;;
11064;SDS011;5585;52.530;7.320;2023-11-22T13:18:44;3.10;;;2.70;;
11064;SDS011;5585;52.530;7.320;2023-11-22T13:21:10;3.90;;;2.83;;
11064;SDS011;5585;52.530;7.320;2023-11-22T13:23:37;3.03;;;2.67;;
11064;SDS011;5585;52.530;7.320;2023-11-22T13:26:04;3.40;;;3.07;;
11064;SDS011;5585;52.530;7.320;2023-11-22T13:28:30;4.57;;;2.97;;
11064;SDS011;5585;52.530;7.320;2023-11-22T13:30:58;3.80;;;3.30;;
11064;SDS011;5585;52.530;7.320;2023-11-22T13:33:25;3.33;;;2.97;;
11064;SDS011;5585;52.530;7.320;2023-11-22T13:35:53;4.30;;;3.00;;
11064;SDS011;5585;52.530;7.320;2023-11-22T13:38:19;3.10;;;2.80;;
11064;SDS011;5585;52.530;7.320;2023-11-22T13:40:46;3.97;;;3.57;;
11064;SDS011;5585;52.530;7.320;2023-11-22T13:43:12;3.27;;;2.77;;
11064;SDS011;5585;52.530;7.320;2023-11-22T13:45:39;6.03;;;2.87;;
11064;SDS011;5585;52.530;7.320;2023-11-22T13:48:08;3.37;;;3.00;;
11064;SDS011;5585;52.530;7.320;2023-11-22T13:50:36;3.87;;;3.27;;
11064;SDS011;5585;52.530;7.320;2023-11-22T13:53:03;4.03;;;3.50;;
11064;SDS011;5585;52.530;7.320;2023-11-22T13:55:30;3.87;;;3.40;;
11064;SDS011;5585;52.530;7.320;2023-11-22T13:57:57;3.87;;;3.00;;
11064;SDS011;5585;52.530;7.320;2023-11-22T14:00:24;3.70;;;3.30;;
11064;SDS011;5585;52.530;7.320;2023-11-22T14:02:52;3.70;;;3.20;;
11064;SDS011;5585;52.530;7.320;2023-11-22T14:05:22;3.60;;;3.23;;
11064;SDS011;5585;52.530;7.320;2023-11-22T14:07:48;3.10;;;2.80;;
11064;SDS011;5585;52.530;7.320;2023-11-22T14:10:18;4.10;;;3.50;;
11064;SDS011;5585;52.530;7.320;2023-11-22T14:12:47;3.97;;;3.00;;
11064;SDS011;5585;52.530;7.320;2023-11-22T14:15:14;4.53;;;3.50;;
11064;SDS011;5585;52.530;7.320;2023-11-22T14:17:41;4.13;;;3.73;;
11064;SDS011;5585;52.530;7.320;2023-11-22T14:20:08;5.80;;;4.03;;
11064;SDS011;5585;52.530;7.320;2023-11-22T14:22:38;5.53;;;3.83;;
11064;SDS011;5585;52.530;7.320;2023-11-22T14:25:05;3.87;;;3.47;;
11064;SDS011;5585;52.530;7.320;2023-11-22T14:27:34;5.70;;;4.10;;
11064;SDS011;5585;52.530;7.320;2023-11-22T14:30:00;4.93;;;3.43;;
11064;SDS011;5585;52.530;7.320;2023-11-22T14:32:30;4.43;;;3.73;;
11064;SDS011;5585;52.530;7.320;2023-11-22T14:34:57;7.00;;;4.40;;
11064;SDS011;5585;52.530;7.320;2023-11-22T14:37:23;5.80;;;4.27;;
11064;SDS011;5585;52.530;7.320;2023-11-22T14:39:52;5.93;;;4.00;;
11064;SDS011;5585;52.530;7.320;2023-11-22T14:42:19;6.10;;;3.63;;
11064;SDS011;5585;52.530;7.320;2023-11-22T14:44:46;4.77;;;3.70;;
11064;SDS011;5585;52.530;7.320;2023-11-22T14:47:13;4.20;;;3.30;;
11064;SDS011;5585;52.530;7.320;2023-11-22T14:49:44;4.93;;;3.07;;
11064;SDS011;5585;52.530;7.320;2023-11-22T14:52:11;3.20;;;2.90;;
11064;SDS011;5585;52.530;7.320;2023-11-22T14:54:37;3.73;;;2.93;;
11064;SDS011;5585;52.530;7.320;2023-11-22T14:57:05;4.27;;;3.10;;
11064;SDS011;5585;52.530;7.320;2023-11-22T14:59:34;3.63;;;2.87;;